createdAt,value
2018-09-13T00:00:22.721Z,18.43
2018-09-13T00:02:50.271Z,19.50
2018-09-13T00:05:17.847Z,27.07
2018-09-13T00:07:45.401Z,16.67
2018-09-13T00:10:12.976Z,15.77
2018-09-13T00:12:40.602Z,13.60
2018-09-13T00:15:08.192Z,16.93
2018-09-13T00:17:35.735Z,22.13
2018-09-13T00:20:03.401Z,14.03
2018-09-13T00:22:30.936Z,16.90
2018-09-13T00:24:58.441Z,20.97
2018-09-13T00:27:26.001Z,16.00
2018-09-13T00:29:53.599Z,18.93
2018-09-13T00:32:21.218Z,18.23
2018-09-13T00:34:48.792Z,18.27
2018-09-13T00:37:16.338Z,20.03
2018-09-13T00:39:43.881Z,26.03
2018-09-13T00:42:11.465Z,16.83
2018-09-13T00:44:39.008Z,22.17
2018-09-13T00:47:11.925Z,18.80
2018-09-13T00:49:40.043Z,21.57
2018-09-13T00:52:07.700Z,17.47
2018-09-13T00:54:35.233Z,16.60
2018-09-13T00:57:02.788Z,14.27
2018-09-13T00:59:30.448Z,14.00
2018-09-13T01:01:58.101Z,13.87
2018-09-13T01:04:25.642Z,15.67
2018-09-13T01:06:53.188Z,20.70
2018-09-13T01:09:20.736Z,19.87
2018-09-13T01:11:48.304Z,15.40
2018-09-13T01:14:15.930Z,15.27
2018-09-13T01:16:43.494Z,15.03
2018-09-13T01:19:11.067Z,21.20
2018-09-13T01:21:38.604Z,17.93
2018-09-13T01:24:06.232Z,16.47
2018-09-13T01:26:33.814Z,14.27
2018-09-13T01:29:01.372Z,13.77
2018-09-13T01:31:28.898Z,12.47
2018-09-13T01:33:56.562Z,16.07
2018-09-13T01:36:24.200Z,13.07
2018-09-13T01:38:51.770Z,16.23
2018-09-13T01:41:19.336Z,11.97
2018-09-13T01:43:46.954Z,19.27
2018-09-13T01:46:14.472Z,12.77
2018-09-13T01:48:42.000Z,20.07
2018-09-13T01:51:09.603Z,12.40
2018-09-13T01:53:37.330Z,15.33
2018-09-13T01:56:04.923Z,16.10
2018-09-13T01:58:32.448Z,16.53
2018-09-13T02:01:00.058Z,16.27
2018-09-13T02:03:27.623Z,16.43
2018-09-13T02:05:55.158Z,13.23
2018-09-13T02:08:22.696Z,12.83
2018-09-13T02:10:50.231Z,12.83
2018-09-13T02:13:17.793Z,16.43
2018-09-13T02:15:45.371Z,14.37
2018-09-13T02:18:12.892Z,11.80
2018-09-13T02:20:40.444Z,11.63
2018-09-13T02:23:08.133Z,15.80
2018-09-13T02:25:35.684Z,17.07
2018-09-13T02:28:03.201Z,19.20
2018-09-13T02:30:30.712Z,11.33
2018-09-13T02:32:58.225Z,11.70
2018-09-13T02:35:25.739Z,13.07
2018-09-13T02:37:53.325Z,9.33
2018-09-13T02:40:20.932Z,15.87
2018-09-13T02:42:48.509Z,14.77
2018-09-13T02:45:16.063Z,13.47
2018-09-13T02:47:43.619Z,16.60
2018-09-13T02:50:11.151Z,11.37
2018-09-13T02:52:38.701Z,10.33
2018-09-13T02:55:06.247Z,12.67
2018-09-13T02:57:33.804Z,19.37
2018-09-13T03:00:01.311Z,12.43
2018-09-13T03:02:28.890Z,11.97
2018-09-13T03:04:56.416Z,10.17
2018-09-13T03:07:23.937Z,12.53
2018-09-13T03:09:51.428Z,14.63
2018-09-13T03:12:18.986Z,13.13
2018-09-13T03:14:46.567Z,10.10
2018-09-13T03:17:14.102Z,13.60
2018-09-13T03:19:41.686Z,15.93
2018-09-13T03:22:09.222Z,15.93
2018-09-13T03:24:36.768Z,11.37
2018-09-13T03:27:04.341Z,11.50
2018-09-13T03:29:31.940Z,14.40
2018-09-13T03:31:59.478Z,13.97
2018-09-13T03:34:26.990Z,15.73
2018-09-13T03:36:54.527Z,13.97
2018-09-13T03:39:22.046Z,14.47
2018-09-13T03:41:49.648Z,14.07
2018-09-13T03:44:17.151Z,10.93
2018-09-13T03:46:44.705Z,16.10
2018-09-13T03:49:12.238Z,21.93
2018-09-13T03:51:39.754Z,16.90
2018-09-13T03:54:07.288Z,18.70
2018-09-13T03:56:34.819Z,14.13
2018-09-13T03:59:02.444Z,16.20
2018-09-13T04:01:30.065Z,16.57
2018-09-13T04:03:57.656Z,17.80
2018-09-13T04:06:25.242Z,14.50
2018-09-13T04:08:52.869Z,12.53
2018-09-13T04:11:20.385Z,13.93
2018-09-13T04:13:48.127Z,9.90
2018-09-13T04:16:15.681Z,15.50
2018-09-13T04:18:43.305Z,14.20
2018-09-13T04:21:10.786Z,12.83
2018-09-13T04:23:38.344Z,19.30
2018-09-13T04:26:05.971Z,16.10
2018-09-13T04:28:33.879Z,18.63
2018-09-13T04:31:01.455Z,15.37
2018-09-13T04:33:29.015Z,11.40
2018-09-13T04:35:56.879Z,17.77
2018-09-13T04:38:24.329Z,16.83
2018-09-13T04:40:51.930Z,11.93
2018-09-13T04:43:19.578Z,20.33
2018-09-13T04:45:47.627Z,14.27
2018-09-13T04:48:15.464Z,11.70
2018-09-13T04:50:43.025Z,12.90
2018-09-13T04:53:10.552Z,18.07
2018-09-13T04:55:38.091Z,19.70
2018-09-13T04:58:05.763Z,21.93
2018-09-13T05:00:33.355Z,16.00
2018-09-13T05:03:00.926Z,13.00
2018-09-13T05:05:28.495Z,20.83
2018-09-13T05:07:56.133Z,21.50
2018-09-13T05:10:23.691Z,15.50
2018-09-13T05:12:51.294Z,24.13
2018-09-13T05:15:18.909Z,20.70
2018-09-13T05:17:46.429Z,16.20
2018-09-13T05:20:13.983Z,13.83
2018-09-13T05:22:41.517Z,27.43
2018-09-13T05:25:09.180Z,14.50
2018-09-13T05:27:36.713Z,14.60
2018-09-13T05:30:05.093Z,20.30
2018-09-13T05:32:32.655Z,14.03
2018-09-13T05:35:00.375Z,15.33
2018-09-13T05:37:28.081Z,21.03
2018-09-13T05:39:55.645Z,20.17
2018-09-13T05:42:23.155Z,20.57
2018-09-13T05:44:50.744Z,18.03
2018-09-13T05:47:18.262Z,24.17
2018-09-13T05:49:45.805Z,18.90
2018-09-13T05:52:13.360Z,18.10
2018-09-13T05:54:41.062Z,20.20
2018-09-13T05:57:08.622Z,11.53
2018-09-13T05:59:36.173Z,14.50
2018-09-13T06:02:03.770Z,19.43
2018-09-13T06:04:31.322Z,15.67
2018-09-13T06:06:58.869Z,21.50
2018-09-13T06:09:26.420Z,26.57
2018-09-13T06:11:53.963Z,18.90
2018-09-13T06:14:21.474Z,14.20
2018-09-13T06:16:49.146Z,19.60
2018-09-13T06:19:16.670Z,16.93
2018-09-13T06:21:44.373Z,12.67
2018-09-13T06:24:11.893Z,13.43
2018-09-13T06:26:39.564Z,13.57
2018-09-13T06:29:07.164Z,17.40
2018-09-13T06:31:34.773Z,20.77
2018-09-13T06:34:02.414Z,12.40
2018-09-13T06:36:30.064Z,14.93
2018-09-13T06:38:57.602Z,14.27
2018-09-13T06:41:25.178Z,17.00
2018-09-13T06:43:52.704Z,11.83
2018-09-13T06:46:20.280Z,18.30
2018-09-13T06:48:47.842Z,11.53
2018-09-13T06:51:15.416Z,10.33
2018-09-13T06:53:42.922Z,15.00
2018-09-13T06:56:10.522Z,16.87
2018-09-13T06:58:38.136Z,14.60
2018-09-13T07:01:05.738Z,12.50
2018-09-13T07:03:33.288Z,10.50
2018-09-13T07:06:00.890Z,14.50
2018-09-13T07:08:28.417Z,12.63
2018-09-13T07:10:56.077Z,10.23
2018-09-13T07:13:23.641Z,14.03
2018-09-13T07:15:51.531Z,14.40
2018-09-13T07:18:19.133Z,13.80
2018-09-13T07:20:46.706Z,13.10
2018-09-13T07:23:14.249Z,12.03
2018-09-13T07:25:41.841Z,15.70
2018-09-13T07:28:09.401Z,8.13
2018-09-13T07:30:36.953Z,18.60
2018-09-13T07:33:04.501Z,19.00
2018-09-13T07:35:32.057Z,11.77
2018-09-13T07:37:59.598Z,21.60
2018-09-13T07:40:27.122Z,13.10
2018-09-13T07:42:54.762Z,11.00
2018-09-13T07:45:22.248Z,11.63
2018-09-13T07:47:49.796Z,11.80
2018-09-13T07:50:17.335Z,13.20
2018-09-13T07:52:44.905Z,13.87
2018-09-13T07:55:12.485Z,12.27
2018-09-13T07:57:40.042Z,18.00
2018-09-13T08:00:07.779Z,17.90
2018-09-13T08:02:35.287Z,13.90
2018-09-13T08:05:02.911Z,12.60
2018-09-13T08:07:30.462Z,10.67
2018-09-13T08:09:58.005Z,12.80
2018-09-13T08:12:25.622Z,14.00
2018-09-13T08:14:53.180Z,15.30
2018-09-13T08:17:20.708Z,18.97
2018-09-13T08:19:48.254Z,17.00
2018-09-13T08:22:15.806Z,14.87
2018-09-13T08:24:43.354Z,16.80
2018-09-13T08:27:10.939Z,13.80
2018-09-13T08:29:38.611Z,16.70
2018-09-13T08:32:06.136Z,12.27
2018-09-13T08:34:33.777Z,19.47
2018-09-13T08:37:01.322Z,18.87
2018-09-13T08:39:28.830Z,13.30
2018-09-13T08:41:56.398Z,15.20
2018-09-13T08:44:23.954Z,16.33
2018-09-13T08:46:51.506Z,16.10
2018-09-13T08:49:19.116Z,18.47
2018-09-13T08:51:46.843Z,14.23
2018-09-13T08:54:14.494Z,14.33
2018-09-13T08:56:42.107Z,18.00
2018-09-13T08:59:09.651Z,13.10
2018-09-13T09:01:37.204Z,24.63
2018-09-13T09:04:04.732Z,23.60
2018-09-13T09:06:32.396Z,18.23
2018-09-13T09:08:59.947Z,19.33
2018-09-13T09:11:27.513Z,16.73
2018-09-13T09:13:55.057Z,19.60
2018-09-13T09:16:22.592Z,17.97
2018-09-13T09:18:50.169Z,17.53
2018-09-13T09:21:17.747Z,15.63
2018-09-13T09:23:45.275Z,22.03
2018-09-13T09:26:12.848Z,16.07
2018-09-13T09:28:40.397Z,17.27
2018-09-13T09:31:07.941Z,18.30
2018-09-13T09:33:35.527Z,15.20
2018-09-13T09:36:03.073Z,14.13
2018-09-13T09:38:30.674Z,16.97
2018-09-13T09:40:58.191Z,19.40
2018-09-13T09:43:25.817Z,18.80
2018-09-13T09:45:53.333Z,19.73
2018-09-13T09:48:20.863Z,18.13
2018-09-13T09:50:48.415Z,15.93
2018-09-13T09:53:15.996Z,21.30
2018-09-13T09:55:43.524Z,16.53
2018-09-13T09:58:11.101Z,21.10
2018-09-13T10:00:44.263Z,17.67
2018-09-13T10:03:11.975Z,14.07
2018-09-13T10:05:39.585Z,50.03
2018-09-13T10:08:07.130Z,18.00
2018-09-13T10:10:34.672Z,15.83
2018-09-13T10:13:02.217Z,18.83
2018-09-13T10:15:35.345Z,17.17
2018-09-13T10:19:07.114Z,26.53
2018-09-13T10:21:40.237Z,24.60
2018-09-13T10:24:13.400Z,17.80
2018-09-13T10:26:46.703Z,20.53
2018-09-13T10:29:19.910Z,27.13
2018-09-13T10:31:53.138Z,18.10
2018-09-13T10:34:26.390Z,18.00
2018-09-13T10:36:59.516Z,17.03
2018-09-13T10:39:32.748Z,21.10
2018-09-13T10:42:06.124Z,15.10
2018-09-13T10:44:39.412Z,25.97
2018-09-13T10:47:12.576Z,18.07
2018-09-13T10:49:45.842Z,17.00
2018-09-13T10:52:15.981Z,26.73
2018-09-13T10:54:43.578Z,26.20
2018-09-13T10:57:17.022Z,21.03
2018-09-13T10:59:45.911Z,22.17
2018-09-13T11:02:13.592Z,21.40
2018-09-13T11:04:41.220Z,23.57
2018-09-13T11:07:10.169Z,20.20
2018-09-13T11:09:37.958Z,20.07
2018-09-13T11:12:06.440Z,19.70
2018-09-13T11:14:39.660Z,14.90
2018-09-13T11:17:07.228Z,21.80
2018-09-13T11:19:34.744Z,19.90
2018-09-13T11:22:02.324Z,24.90
2018-09-13T11:24:29.965Z,21.20
2018-09-13T11:26:57.827Z,24.83
2018-09-13T11:29:25.407Z,23.20
2018-09-13T11:31:53.000Z,28.67
2018-09-13T11:34:20.724Z,17.90
2018-09-13T11:36:48.271Z,27.30
2018-09-13T11:39:15.843Z,20.10
2018-09-13T11:41:43.454Z,22.40
2018-09-13T11:44:11.041Z,15.60
2018-09-13T11:46:38.627Z,22.30
2018-09-13T11:49:06.321Z,24.33
2018-09-13T11:51:33.897Z,21.17
2018-09-13T11:54:01.577Z,19.40
2018-09-13T11:56:29.087Z,18.30
2018-09-13T11:58:56.717Z,16.77
2018-09-13T12:01:24.279Z,17.53
2018-09-13T12:03:51.847Z,17.87
2018-09-13T12:06:19.495Z,19.40
2018-09-13T12:08:47.170Z,19.37
2018-09-13T12:11:14.694Z,21.23
2018-09-13T12:13:42.241Z,23.07
2018-09-13T12:16:09.812Z,22.57
2018-09-13T12:18:37.447Z,21.37
2018-09-13T12:21:05.045Z,18.57
2018-09-13T12:23:32.591Z,22.30
2018-09-13T12:26:00.146Z,24.50
2018-09-13T12:28:27.737Z,19.50
2018-09-13T12:30:55.326Z,20.40
2018-09-13T12:33:22.885Z,30.13
2018-09-13T12:35:50.468Z,26.07
2018-09-13T12:38:18.009Z,31.70
2018-09-13T12:40:45.573Z,22.20
2018-09-13T12:43:13.133Z,24.43
2018-09-13T12:45:40.809Z,22.23
2018-09-13T12:48:08.487Z,23.63
2018-09-13T12:50:36.151Z,22.93
2018-09-13T12:53:03.763Z,32.63
2018-09-13T12:55:36.864Z,26.10
2018-09-13T12:58:04.589Z,26.00
2018-09-13T13:00:32.172Z,24.50
2018-09-13T13:02:59.830Z,26.03
2018-09-13T13:05:27.364Z,34.33
2018-09-13T13:07:54.886Z,24.83
2018-09-13T13:10:22.512Z,23.70
2018-09-13T13:12:50.108Z,27.83
2018-09-13T13:15:17.682Z,27.83
2018-09-13T13:17:45.269Z,24.83
2018-09-13T13:20:12.912Z,32.37
2018-09-13T13:22:40.485Z,26.80
2018-09-13T13:25:08.078Z,27.97
2018-09-13T13:27:35.728Z,24.83
2018-09-13T13:30:03.322Z,27.97
2018-09-13T13:32:30.906Z,25.97
2018-09-13T13:34:58.472Z,24.40
2018-09-13T13:37:26.024Z,22.07
2018-09-13T13:39:53.620Z,21.50
2018-09-13T13:42:21.165Z,20.13
2018-09-13T13:44:48.789Z,19.00
2018-09-13T13:47:16.380Z,24.80
2018-09-13T13:49:43.960Z,23.97
2018-09-13T13:52:11.485Z,19.23
2018-09-13T13:54:39.043Z,22.27
2018-09-13T13:57:06.602Z,24.27
2018-09-13T13:59:34.254Z,23.20
2018-09-13T14:02:01.858Z,21.57
2018-09-13T14:04:29.419Z,19.17
2018-09-13T14:06:57.024Z,20.77
2018-09-13T14:09:24.582Z,21.50
2018-09-13T14:11:52.203Z,30.30
2018-09-13T14:14:19.768Z,18.53
2018-09-13T14:16:47.410Z,29.83
2018-09-13T14:19:14.991Z,15.47
2018-09-13T14:21:42.549Z,17.30
2018-09-13T14:24:10.067Z,18.63
2018-09-13T14:26:37.657Z,22.90
2018-09-13T14:29:05.277Z,15.40
2018-09-13T14:31:32.904Z,25.27
2018-09-13T14:34:00.494Z,20.47
2018-09-13T14:36:28.217Z,16.40
2018-09-13T14:38:55.739Z,14.60
2018-09-13T14:41:23.418Z,18.37
2018-09-13T14:43:50.916Z,19.30
2018-09-13T14:46:18.520Z,22.70
2018-09-13T14:48:46.061Z,19.60
2018-09-13T14:51:13.623Z,17.60
2018-09-13T14:53:41.263Z,13.93
2018-09-13T14:56:08.919Z,15.80
2018-09-13T14:58:36.492Z,19.13
2018-09-13T15:01:04.029Z,18.43
2018-09-13T15:03:31.647Z,17.97
2018-09-13T15:05:59.231Z,16.40
2018-09-13T15:08:26.799Z,22.63
2018-09-13T15:10:54.380Z,15.33
2018-09-13T15:13:22.021Z,14.13
2018-09-13T15:15:49.643Z,17.97
2018-09-13T15:18:17.197Z,18.00
2018-09-13T15:20:44.769Z,18.43
2018-09-13T15:23:12.387Z,16.33
2018-09-13T15:25:39.925Z,19.30
2018-09-13T15:28:07.540Z,14.83
2018-09-13T15:30:35.181Z,17.00
2018-09-13T15:33:02.762Z,20.60
2018-09-13T15:35:30.297Z,18.67
2018-09-13T15:37:57.871Z,15.43
2018-09-13T15:40:25.444Z,21.17
2018-09-13T15:42:53.047Z,18.20
2018-09-13T15:45:20.632Z,15.17
2018-09-13T15:47:48.276Z,14.43
2018-09-13T15:50:15.868Z,16.13
2018-09-13T15:52:43.475Z,13.77
2018-09-13T15:55:11.038Z,17.67
2018-09-13T15:57:38.592Z,30.60
2018-09-13T16:00:07.154Z,16.03
2018-09-13T16:02:34.857Z,14.33
2018-09-13T16:05:02.471Z,16.33
2018-09-13T16:07:30.242Z,17.63
2018-09-13T16:09:57.837Z,20.00
2018-09-13T16:12:25.476Z,19.60
2018-09-13T16:14:53.028Z,13.80
2018-09-13T16:17:20.674Z,20.83
2018-09-13T16:19:48.387Z,15.80
2018-09-13T16:22:16.267Z,17.10
2018-09-13T16:24:43.884Z,15.13
2018-09-13T16:27:11.438Z,12.87
2018-09-13T16:29:39.033Z,20.77
2018-09-13T16:32:06.689Z,12.83
2018-09-13T16:34:34.332Z,15.80
2018-09-13T16:37:09.712Z,18.83
2018-09-13T16:39:42.921Z,15.10
2018-09-13T16:42:16.060Z,21.67
2018-09-13T16:44:48.305Z,16.73
2018-09-13T16:47:30.567Z,16.67
2018-09-13T16:50:00.459Z,17.67
2018-09-13T16:52:28.889Z,15.23
2018-09-13T16:54:56.489Z,18.83
2018-09-13T16:57:24.175Z,17.90
2018-09-13T16:59:51.778Z,15.70
2018-09-13T17:02:19.573Z,18.23
2018-09-13T17:04:47.752Z,16.37
2018-09-13T17:07:15.326Z,21.73
2018-09-13T17:09:43.098Z,18.80
2018-09-13T17:12:10.690Z,12.77
2018-09-13T17:14:38.251Z,12.23
2018-09-13T17:17:05.856Z,21.83
2018-09-13T17:19:33.551Z,16.83
2018-09-13T17:22:01.294Z,18.00
2018-09-13T17:24:28.884Z,14.13
2018-09-13T17:26:56.525Z,21.00
2018-09-13T17:29:24.186Z,13.60
2018-09-13T17:31:51.870Z,10.30
2018-09-13T17:34:19.580Z,14.40
2018-09-13T17:36:47.613Z,14.80
2018-09-13T17:39:15.218Z,13.93
2018-09-13T17:41:43.327Z,15.30
2018-09-13T17:44:11.093Z,20.83
2018-09-13T17:46:39.726Z,17.73
2018-09-13T17:49:07.400Z,13.23
2018-09-13T17:51:35.075Z,18.00
2018-09-13T17:54:02.770Z,17.67
2018-09-13T17:56:30.520Z,14.87
2018-09-13T17:58:58.162Z,15.97
2018-09-13T18:01:25.840Z,12.20
2018-09-13T18:03:53.585Z,15.50
2018-09-13T18:06:21.895Z,18.33
2018-09-13T18:08:49.852Z,11.57
2018-09-13T18:11:17.614Z,13.03
2018-09-13T18:13:45.462Z,12.07
2018-09-13T18:16:13.157Z,15.67
2018-09-13T18:18:41.348Z,16.63
2018-09-13T18:21:09.226Z,16.57
2018-09-13T18:23:37.030Z,13.33
2018-09-13T18:26:05.529Z,13.17
2018-09-13T18:28:33.437Z,12.73
2018-09-13T18:31:01.247Z,17.73
2018-09-13T18:33:28.997Z,15.20
2018-09-13T18:35:59.726Z,15.53
2018-09-13T18:38:27.413Z,19.30
2018-09-13T18:40:55.136Z,15.53
2018-09-13T18:43:22.838Z,18.83
2018-09-13T18:45:50.565Z,14.80
2018-09-13T18:48:18.306Z,10.83
2018-09-13T18:50:52.694Z,20.00
2018-09-13T18:53:20.352Z,19.67
2018-09-13T18:55:48.161Z,32.13
2018-09-13T18:58:16.302Z,27.37
2018-09-13T19:00:44.037Z,18.57
2018-09-13T19:03:11.708Z,16.50
2018-09-13T19:05:39.421Z,16.40
2018-09-13T19:08:07.087Z,18.30
2018-09-13T19:10:34.853Z,19.37
2018-09-13T19:13:02.589Z,19.77
2018-09-13T19:15:30.343Z,18.43
2018-09-13T19:17:58.882Z,25.50
2018-09-13T19:20:26.932Z,51.50
2018-09-13T19:22:54.730Z,48.03
2018-09-13T19:25:22.742Z,31.87
2018-09-13T19:27:51.212Z,18.83
2018-09-13T19:30:19.010Z,20.57
2018-09-13T19:32:47.221Z,15.27
2018-09-13T19:35:15.226Z,22.03
2018-09-13T19:37:43.886Z,17.97
2018-09-13T19:40:11.729Z,18.13
2018-09-13T19:42:39.844Z,21.00
2018-09-13T19:45:08.392Z,22.20
2018-09-13T19:47:36.133Z,16.67
2018-09-13T19:50:04.197Z,18.20
2018-09-13T19:52:31.888Z,20.93
2018-09-13T19:54:59.889Z,21.73
2018-09-13T19:57:27.607Z,21.10
2018-09-13T19:59:56.106Z,22.00
2018-09-13T20:02:23.808Z,25.90
2018-09-13T20:04:51.584Z,20.93
2018-09-13T20:07:19.336Z,23.70
2018-09-13T20:09:47.060Z,20.37
2018-09-13T20:12:15.781Z,25.47
2018-09-13T20:14:43.420Z,19.17
2018-09-13T20:17:11.526Z,21.63
2018-09-13T20:19:39.221Z,25.20
2018-09-13T20:22:07.047Z,33.80
2018-09-13T20:24:35.693Z,25.93
2018-09-13T20:27:03.322Z,41.30
2018-09-13T20:29:30.992Z,31.43
2018-09-13T20:31:58.632Z,26.83
2018-09-13T20:34:26.355Z,30.30
2018-09-13T20:36:54.970Z,29.60
2018-09-13T20:39:22.611Z,24.80
2018-09-13T20:41:50.279Z,17.80
2018-09-13T20:44:17.934Z,25.47
2018-09-13T20:46:46.202Z,25.40
2018-09-13T20:49:13.850Z,26.03
2018-09-13T20:51:41.457Z,25.27
2018-09-13T20:54:09.096Z,18.43
2018-09-13T20:56:36.706Z,27.07
2018-09-13T20:59:04.350Z,18.30
2018-09-13T21:01:31.940Z,19.20
2018-09-13T21:04:00.159Z,24.07
2018-09-13T21:06:27.729Z,24.10
2018-09-13T21:08:55.290Z,27.03
2018-09-13T21:11:22.830Z,30.43
2018-09-13T21:13:50.391Z,27.60
2018-09-13T21:16:18.077Z,27.23
2018-09-13T21:18:45.670Z,29.13
2018-09-13T21:21:13.262Z,28.57
2018-09-13T21:23:40.811Z,26.50
2018-09-13T21:26:08.773Z,26.47
2018-09-13T21:28:36.447Z,27.80
2018-09-13T21:31:04.018Z,22.77
2018-09-13T21:33:31.611Z,29.50
2018-09-13T21:35:59.193Z,25.53
2018-09-13T21:38:26.745Z,25.83
2018-09-13T21:40:54.281Z,22.30
2018-09-13T21:43:21.810Z,26.80
2018-09-13T21:45:49.371Z,20.40
2018-09-13T21:48:17.898Z,21.40
2018-09-13T21:50:45.493Z,19.03
2018-09-13T21:53:13.025Z,21.90
2018-09-13T21:55:40.641Z,23.80
2018-09-13T21:58:08.167Z,28.07
2018-09-13T22:00:35.734Z,28.87
2018-09-13T22:03:03.345Z,26.27
2018-09-13T22:05:30.967Z,27.17
2018-09-13T22:07:58.513Z,25.13
2018-09-13T22:10:26.050Z,29.30
2018-09-13T22:12:53.608Z,25.20
2018-09-13T22:15:21.167Z,32.57
2018-09-13T22:17:48.763Z,27.80
2018-09-13T22:20:16.335Z,29.53
2018-09-13T22:22:44.009Z,26.80
2018-09-13T22:25:11.551Z,29.63
2018-09-13T22:27:39.112Z,28.53
2018-09-13T22:30:06.856Z,29.20
2018-09-13T22:32:34.405Z,31.43
2018-09-13T22:35:01.919Z,29.87
2018-09-13T22:37:29.465Z,27.57
2018-09-13T22:39:57.019Z,28.20
2018-09-13T22:42:24.569Z,31.93
2018-09-13T22:44:56.708Z,26.40
2018-09-13T22:47:24.239Z,27.83
2018-09-13T22:49:51.777Z,24.50
2018-09-13T22:52:19.541Z,28.83
2018-09-13T22:54:49.836Z,33.03
2018-09-13T22:57:17.929Z,24.63
2018-09-13T22:59:45.557Z,30.70
2018-09-13T23:02:13.091Z,30.93
2018-09-13T23:04:40.762Z,35.83
2018-09-13T23:07:08.294Z,33.40
2018-09-13T23:09:35.998Z,34.83
2018-09-13T23:12:03.538Z,30.53
2018-09-13T23:14:31.054Z,29.13
2018-09-13T23:16:58.601Z,30.07
2018-09-13T23:19:26.158Z,35.93
2018-09-13T23:21:53.769Z,32.30
2018-09-13T23:24:21.330Z,34.70
2018-09-13T23:26:48.854Z,33.67
2018-09-13T23:29:16.383Z,42.07
2018-09-13T23:31:43.928Z,38.70
2018-09-13T23:34:11.435Z,33.37
2018-09-13T23:36:39.011Z,34.20
2018-09-13T23:39:08.145Z,37.97
2018-09-13T23:41:35.726Z,44.37
2018-09-13T23:44:03.314Z,35.77
2018-09-13T23:46:30.923Z,35.73
2018-09-13T23:48:58.456Z,45.97
2018-09-13T23:51:26.032Z,46.27
2018-09-13T23:53:53.567Z,38.03
2018-09-13T23:56:21.248Z,36.67
2018-09-13T23:58:48.821Z,40.50
